Misenheimer, North Carolina
Current Conditions -  °F | °C
As of 11:55 AM on Thursday 27 Nov 2014 (Local Time) from KVUJ Reporting Station
Broken Clouds Broken Clouds  
Wind Chill: 41°   Ceiling: 2200
Heat Index: 46°   Visibility: 10mi
Dew Point: 39°   Wind: 10mph
Humidity: 77%   Direction: 360°N
Pressure: 30.13"   Gusts: 16mph
Location:  35.48°N, 80.29°W
Report Text: KVUJ 271655Z AUTO 36009G14KT 10SM BKN022 BKN027 08/04 A3013 RMK AO2 T00780040
Loading
Personal Weather Stations






























Interactive Weather Map New forecast layout! Learn more

10-Day Weather Forecast

Advertisements
Track Severe Weather on mobile